Elk, Pennsylvania
Current Conditions -  °F | °C
As of 4:15 AM on Friday 31 Oct 2014 (Local Time) from KN38 Reporting Station
Overcast Overcast  
Wind Chill: 37°   Ceiling: 3900
Heat Index: 37°   Visibility: 10mi
Dew Point: 34°   Wind: 0mph
Humidity: 87%   Direction: NA
Pressure: 30"   Gusts: NA
Location:  41.6649°N, 77.5403°W
Report Text: KN38 310815Z AUTO 00000KT 10SM OVC039 03/01 A3000 RMK AO2
Loading
Personal Weather Stations






























Interactive Weather Map
Tropical Storm Tracking
New forecast layout! Learn more

10-Day Weather Forecast

Advertisements
Track Severe Weather on mobile